This is the latest recevied weather packets stored in our database for station/object KD4KKF. If no packets are shown the sender has not sent any weather packets the latest 10 day(s).
| Time | Temp. | Humidity | Pressure | Rain* | Wind** | Luminosity | Snow |
|---|---|---|---|---|---|---|---|
| 1777343368 | 24.44° C | 84% | 1013.5 hPa | 0 mm | - | 0 W/m² | - |
| 1777343067 | 24.44° C | 83% | 1013.8 hPa | 0 mm | - | 0 W/m² | - |
| 1777342762 | 24.44° C | 83% | 1013.6 hPa | 0 mm | - | 0 W/m² | - |
| 1777342454 | 24.44° C | 83% | 1013.8 hPa | 0 mm | - | 0 W/m² | - |
| 1777342151 | 24.44° C | 83% | 1013.6 hPa | 0 mm | - | 0 W/m² | - |
| 1777341847 | 24.44° C | 83% | 1013.6 hPa | 0 mm | - | 0 W/m² | - |
| 1777341538 | 24.44° C | 82% | 1013.7 hPa | 0 mm | - | 0 W/m² | - |
| 1777341234 | 25° C | 82% | 1013.6 hPa | 0 mm | - | 0 W/m² | - |
| 1777340930 | 25° C | 82% | 1013.8 hPa | 0 mm | - | 0 W/m² | - |
| 1777340629 | 25° C | 82% | 1013.7 hPa | 0 mm | - | 0 W/m² | - |
| 1777340326 | 25° C | 81% | 1013.8 hPa | 0 mm | - | 0 W/m² | - |
| 1777340023 | 25° C | 81% | 1013.6 hPa | 0 mm | - | 0 W/m² | - |
| 1777339720 | 25° C | 81% | 1013.5 hPa | 0 mm | - | 0 W/m² | - |
| 1777339417 | 25° C | 81% | 1013.4 hPa | 0 mm | - | 0 W/m² | - |
| 1777339115 | 25° C | 81% | 1013.5 hPa | 0 mm | - | 0 W/m² | - |
| 1777329331 | 28.33° C | 68% | 1012.7 hPa | 0 mm | - | 202 W/m² | - |
| 1777329028 | 28.33° C | 68% | 1012.7 hPa | 0 mm | - | 202 W/m² | - |
| 1777328726 | 28.33° C | 68% | 1012.7 hPa | 0 mm | - | 186 W/m² | - |
| 1777328423 | 28.33° C | 68% | 1012.7 hPa | 0 mm | - | 166 W/m² | - |
| 1777328122 | 28.89° C | 67% | 1012.7 hPa | 0 mm | - | 242 W/m² | - |
| 1777327820 | 28.89° C | 66% | 1012.9 hPa | 0 mm | - | 332 W/m² | - |
| 1777327517 | 28.89° C | 66% | 1012.9 hPa | 0 mm | - | 212 W/m² | - |
| 1777327215 | 28.33° C | 68% | 1012.6 hPa | 0 mm | - | 381 W/m² | - |
| 1777326911 | 29.44° C | 66% | 1012.5 hPa | 0 mm | - | 203 W/m² | - |
| 1777326609 | 28.89° C | 66% | 1012.7 hPa | 0 mm | - | 352 W/m² | - |
* Rain latest hour (hover to see other rain measurements)
** Current wind speed in m/s (hover to see current wind gust speed)